Time;durP1;ratioP1;P1;durP2;ratioP2;P2;SDS_P1;SDS_P2;PMS_P1;PMS_P2;Temp;Humidity;BMP_temperature;BMP_pressure;BME280_temperature;BME280_humidity;BME280_pressure;Samples;Min_cycle;Max_cycle;Signal;HPM_P1;HPM_P2
2022/09/01 00:01:53;;;;;;;;;;;;;;;22.96;65.16;100615.31;7401969;19;1589;-61
2022/09/01 00:04:26;;;;;;;;;;;;;;;23.03;65.99;100623.63;7404189;19;1546;-61
2022/09/01 00:06:55;;;;;;;;;;;;;;;23.11;66.33;100620.09;7403651;19;1495;-61
2022/09/01 00:09:24;;;;;;;;;;;;;;;23.21;66.29;100610.00;7400145;19;1860;-61
2022/09/01 00:11:54;;;;;;;;;;;;;;;23.21;66.84;100602.72;7403756;19;1344;-61
2022/09/01 00:14:24;;;;;;;;;;;;;;;23.12;65.34;100619.06;7404603;19;1269;-61
2022/09/01 00:16:52;;;;;;;;;;;;;;;22.82;64.42;100610.59;7401430;19;1542;-60
2022/09/01 00:19:25;;;;;;;;;;;;;;;22.79;64.12;100613.59;7404105;19;1475;-61
2022/09/01 00:21:53;;;;;;;;;;;;;;;22.75;64.31;100601.44;7402947;19;1413;-61
2022/09/01 00:24:21;;;;;;;;;;;;;;;22.74;64.31;100615.91;7403645;19;1451;-61
2022/09/01 00:26:50;;;;;;;;;;;;;;;22.80;64.16;100602.66;7403860;19;1388;-61
2022/09/01 00:29:18;;;;;;;;;;;;;;;22.75;64.08;100594.19;7403731;19;1869;-61
2022/09/01 00:31:47;;;;;;;;;;;;;;;22.83;63.90;100614.94;7403080;19;1705;-61
2022/09/01 00:34:15;;;;;;;;;;;;;;;22.82;65.08;100599.78;7403694;19;1278;-61
2022/09/01 00:36:46;;;;;;;;;;;;;;;22.89;65.28;100598.09;7403174;19;1529;-61
2022/09/01 00:39:15;;;;;;;;;;;;;;;22.96;65.98;100599.16;7403118;19;1321;-61
2022/09/01 00:41:46;;;;;;;;;;;;;;;23.13;64.16;100593.81;7403084;19;1321;-61
2022/09/01 00:44:15;;;;;;;;;;;;;;;23.18;65.24;100599.56;7404079;19;1274;-61
2022/09/01 00:46:45;;;;;;;;;;;;;;;23.28;65.50;100596.66;7403563;19;1628;-61
2022/09/01 00:49:16;;;;;;;;;;;;;;;23.00;63.63;100597.81;7401935;19;1853;-61
2022/09/01 00:51:49;;;;;;;;;;;;;;;22.69;63.34;100608.34;7402589;19;1538;-61
2022/09/01 00:54:20;;;;;;;;;;;;;;;22.71;63.29;100622.50;7402010;19;1541;-61
2022/09/01 00:56:49;;;;;;;;;;;;;;;22.67;62.63;100614.91;7403131;19;1462;-61
2022/09/01 00:59:19;;;;;;;;;;;;;;;22.63;63.87;100611.69;7401041;19;1274;-61
2022/09/01 01:01:48;;;;;;;;;;;;;;;22.62;64.14;100618.06;7402466;19;1645;-61
2022/09/01 01:04:16;;;;;;;;;;;;;;;22.61;64.03;100625.31;7402092;19;1515;-61
2022/09/01 01:06:49;;;;;;;;;;;;;;;22.63;64.95;100619.78;7402527;19;1629;-61
2022/09/01 01:09:17;;;;;;;;;;;;;;;22.73;64.81;100622.34;7401494;19;1875;-61
2022/09/01 01:11:46;;;;;;;;;;;;;;;22.77;65.65;100610.22;7402205;19;1387;-61
2022/09/01 01:14:16;;;;;;;;;;;;;;;22.90;65.39;100610.59;7403171;19;1270;-61
2022/09/01 01:16:46;;;;;;;;;;;;;;;23.05;65.33;100612.66;7401094;19;1557;-61
2022/09/01 01:23:01;;;;;;;;;;;;;;;23.11;65.04;100612.00;7403474;19;1483;-61
2022/09/01 01:25:00;;;;;;;;;;;;;;;22.75;63.76;100598.75;7410425;19;1337;-68
2022/09/01 01:27:32;;;;;;;;;;;;;;;22.50;63.17;100604.06;7409839;19;1522;-68
2022/09/01 01:30:02;;;;;;;;;;;;;;;22.52;63.64;100612.84;7408372;19;1859;-68
2022/09/01 01:32:32;;;;;;;;;;;;;;;22.67;63.66;100617.59;7409616;19;1332;-68
2022/09/01 01:35:04;;;;;;;;;;;;;;;22.57;63.70;100620.44;7408257;19;1465;-68
2022/09/01 01:37:33;;;;;;;;;;;;;;;22.55;63.93;100612.50;7409918;19;1356;-68
2022/09/01 01:40:05;;;;;;;;;;;;;;;22.56;64.18;100614.19;7409402;19;1765;-68
2022/09/01 01:42:35;;;;;;;;;;;;;;;22.59;64.59;100608.47;7408056;19;1538;-67
2022/09/01 01:45:04;;;;;;;;;;;;;;;22.56;65.20;100614.19;7408029;19;1368;-67
2022/09/01 01:47:32;;;;;;;;;;;;;;;22.77;64.98;100607.53;7410132;19;1303;-68
2022/09/01 01:50:03;;;;;;;;;;;;;;;22.87;64.86;100597.44;7407912;19;1857;-68
2022/09/01 01:52:33;;;;;;;;;;;;;;;23.02;64.18;100609.28;7408852;19;1337;-68
2022/09/01 01:55:08;;;;;;;;;;;;;;;23.11;63.90;100610.13;7408826;19;1484;-68
2022/09/01 01:57:38;;;;;;;;;;;;;;;23.14;62.94;100617.91;7408433;19;1344;-67
2022/09/01 02:00:08;;;;;;;;;;;;;;;22.67;62.80;100614.91;7408483;19;1349;-67
2022/09/01 02:02:36;;;;;;;;;;;;;;;22.38;63.07;100630.47;7394855;19;1545;-68
2022/09/01 02:05:05;;;;;;;;;;;;;;;22.40;63.53;100624.88;7407589;19;1365;-68
2022/09/01 02:07:34;;;;;;;;;;;;;;;22.52;63.25;100633.53;7408085;19;1541;-69
2022/09/01 02:10:05;;;;;;;;;;;;;;;22.47;63.58;100625.09;7406152;19;1822;-68
2022/09/01 02:12:34;;;;;;;;;;;;;;;22.43;64.03;100636.19;7407789;19;1391;-68
2022/09/01 02:15:04;;;;;;;;;;;;;;;22.44;64.37;100637.03;7409311;19;1314;-67
2022/09/01 02:17:33;;;;;;;;;;;;;;;22.44;65.04;100631.63;7408114;19;1313;-68
2022/09/01 02:20:02;;;;;;;;;;;;;;;22.50;64.56;100620.25;7407716;19;1499;-68
2022/09/01 02:22:30;;;;;;;;;;;;;;;22.65;65.22;100625.84;7406953;19;1708;-68
2022/09/01 02:24:59;;;;;;;;;;;;;;;22.88;64.24;100626.09;7408286;19;1385;-68
2022/09/01 02:27:35;;;;;;;;;;;;;;;22.97;64.10;100627.78;7407599;19;1514;-68
2022/09/01 02:30:09;;;;;;;;;;;;;;;23.19;63.22;100623.63;7405618;19;1859;-68
2022/09/01 02:32:40;;;;;;;;;;;;;;;22.97;62.22;100632.34;7406102;19;1267;-68
2022/09/01 02:35:10;;;;;;;;;;;;;;;22.51;62.66;100627.31;7407503;19;1484;-68
2022/09/01 02:37:42;;;;;;;;;;;;;;;22.36;63.16;100635.16;7407793;19;1387;-68
2022/09/01 02:40:11;;;;;;;;;;;;;;;22.40;63.71;100635.66;7406625;19;1839;-68
2022/09/01 02:42:45;;;;;;;;;;;;;;;22.48;63.85;100634.88;7406083;19;1498;-68
2022/09/01 02:45:15;;;;;;;;;;;;;;;22.36;64.16;100634.28;7406832;19;1503;-68
2022/09/01 02:47:45;;;;;;;;;;;;;;;22.34;64.23;100636.31;7408432;19;1383;-68
2022/09/01 02:50:18;;;;;;;;;;;;;;;22.41;64.57;100627.44;7406202;19;1826;-67
2022/09/01 02:52:48;;;;;;;;;;;;;;;22.45;64.12;100633.34;7408024;19;1533;-69
2022/09/01 02:55:21;;;;;;;;;;;;;;;22.54;64.54;100616.22;7407854;19;1336;-68
2022/09/01 02:57:56;;;;;;;;;;;;;;;23.11;62.72;100620.94;7406665;19;1411;-68
2022/09/01 03:00:32;;;;;;;;;;;;;;;23.41;61.54;100627.53;7406015;19;1295;-69
2022/09/01 03:03:01;;;;;;;;;;;;;;;23.62;61.38;100612.72;7404611;19;1461;-62
2022/09/01 03:05:31;;;;;;;;;;;;;;;23.66;60.91;100621.31;7405296;19;1213;-71
2022/09/01 03:08:00;;;;;;;;;;;;;;;23.79;60.33;100625.19;7407772;19;1203;-71
2022/09/01 03:10:31;;;;;;;;;;;;;;;23.77;60.47;100619.13;7407334;19;1860;-73
2022/09/01 03:13:05;;;;;;;;;;;;;;;23.77;60.38;100635.31;7404646;19;1781;-67
2022/09/01 03:15:35;;;;;;;;;;;;;;;23.72;60.35;100631.44;7407101;19;1427;-67
2022/09/01 03:18:04;;;;;;;;;;;;;;;23.69;60.62;100638.00;7402774;19;1248;-67
2022/09/01 03:20:34;;;;;;;;;;;;;;;23.78;60.33;100631.63;7400091;19;1444;-69
2022/09/01 03:23:03;;;;;;;;;;;;;;;23.95;60.03;100642.38;7405351;19;1286;-68
2022/09/01 03:25:32;;;;;;;;;;;;;;;23.81;60.06;100638.53;7403389;19;1347;-69
2022/09/01 03:28:04;;;;;;;;;;;;;;;23.86;59.83;100633.47;7405111;19;1355;-67
2022/09/01 03:30:34;;;;;;;;;;;;;;;23.94;59.56;100641.56;7403723;19;1863;-67
2022/09/01 03:33:03;;;;;;;;;;;;;;;23.95;59.55;100632.41;7405116;19;1420;-62
2022/09/01 03:35:33;;;;;;;;;;;;;;;24.06;59.68;100635.81;7404823;19;1563;-67
2022/09/01 03:38:02;;;;;;;;;;;;;;;24.09;59.71;100649.78;7404398;19;1400;-68
2022/09/01 03:40:32;;;;;;;;;;;;;;;24.09;59.62;100646.25;7403890;19;1301;-68
2022/09/01 03:43:00;;;;;;;;;;;;;;;24.20;59.37;100652.13;7402700;19;1439;-68
2022/09/01 03:45:34;;;;;;;;;;;;;;;24.17;59.58;100647.09;7405090;19;1391;-70
2022/09/01 03:48:05;;;;;;;;;;;;;;;24.28;59.30;100647.72;7401487;19;1304;-62
2022/09/01 03:50:35;;;;;;;;;;;;;;;24.23;59.11;100634.72;7402179;19;1850;-61
2022/09/01 03:53:03;;;;;;;;;;;;;;;24.18;59.00;100648.75;7405110;19;1825;-66
2022/09/01 03:55:33;;;;;;;;;;;;;;;24.28;58.89;100656.69;7402626;19;1531;-67
2022/09/01 03:58:05;;;;;;;;;;;;;;;24.30;58.45;100646.53;7404905;19;1346;-66
2022/09/01 04:00:37;;;;;;;;;;;;;;;24.25;58.77;100626.44;7404831;19;1214;-68
2022/09/01 04:03:06;;;;;;;;;;;;;;;24.29;58.49;100650.28;7405261;19;1456;-70
2022/09/01 04:05:36;;;;;;;;;;;;;;;24.22;58.58;100630.34;7404465;19;1606;-68
2022/09/01 04:08:06;;;;;;;;;;;;;;;24.30;58.45;100637.59;7404277;19;1320;-70
2022/09/01 04:10:37;;;;;;;;;;;;;;;24.31;58.26;100640.13;7403597;19;1859;-70
2022/09/01 04:13:10;;;;;;;;;;;;;;;24.30;58.27;100629.47;7404431;19;1614;-70
2022/09/01 04:15:41;;;;;;;;;;;;;;;24.35;58.15;100648.72;7405181;19;1274;-69
2022/09/01 04:18:18;;;;;;;;;;;;;;;24.34;58.14;100633.53;7402092;19;1783;-69
2022/09/01 04:20:51;;;;;;;;;;;;;;;24.24;58.47;100651.81;7404979;19;1633;-69
2022/09/01 04:23:25;;;;;;;;;;;;;;;24.25;58.87;100645.38;7404989;19;1542;-69
2022/09/01 04:25:55;;;;;;;;;;;;;;;24.24;58.84;100630.19;7405365;19;1491;-69
2022/09/01 04:28:25;;;;;;;;;;;;;;;24.26;58.74;100650.59;7405038;19;1340;-69
2022/09/01 04:31:04;;;;;;;;;;;;;;;24.27;58.76;100649.56;7403299;19;1860;-69
2022/09/01 04:33:36;;;;;;;;;;;;;;;24.27;58.69;100651.44;7404041;19;1410;-70
2022/09/01 04:36:05;;;;;;;;;;;;;;;24.28;58.57;100642.31;7403749;19;1273;-70
2022/09/01 04:38:34;;;;;;;;;;;;;;;24.24;58.85;100641.00;7405094;19;1447;-70
2022/09/01 04:41:05;;;;;;;;;;;;;;;24.29;58.55;100635.88;7403426;19;1359;-70
2022/09/01 04:43:34;;;;;;;;;;;;;;;24.37;58.55;100646.66;7403417;19;1276;-69
2022/09/01 04:46:05;;;;;;;;;;;;;;;24.33;58.63;100648.91;7403076;19;1283;-69
2022/09/01 04:48:33;;;;;;;;;;;;;;;24.44;58.90;100663.06;7401925;19;1245;-68
2022/09/01 04:51:01;;;;;;;;;;;;;;;24.28;59.31;100663.94;7401712;19;1862;-70
2022/09/01 04:53:30;;;;;;;;;;;;;;;24.25;58.94;100658.88;7401149;19;1537;-68
2022/09/01 04:56:04;;;;;;;;;;;;;;;24.32;58.67;100668.00;7408250;19;1773;-68
2022/09/01 04:58:32;;;;;;;;;;;;;;;24.18;58.42;100656.88;7410611;19;1708;-62
2022/09/01 05:01:02;;;;;;;;;;;;;;;24.07;58.80;100657.22;7408690;19;1496;-68
2022/09/01 05:03:34;;;;;;;;;;;;;;;24.01;58.87;100647.09;7409508;19;1439;-68
2022/09/01 05:06:02;;;;;;;;;;;;;;;24.00;58.75;100657.06;7411344;19;1432;-68
2022/09/01 05:08:34;;;;;;;;;;;;;;;23.77;59.25;100670.41;7410123;19;1362;-67
2022/09/01 05:11:06;;;;;;;;;;;;;;;23.87;59.15;100650.50;7406087;19;1862;-68
2022/09/01 05:13:37;;;;;;;;;;;;;;;23.87;59.13;100651.34;7408001;19;1361;-68
2022/09/01 05:16:11;;;;;;;;;;;;;;;23.96;58.85;100660.28;7408890;19;1385;-68
2022/09/01 05:18:43;;;;;;;;;;;;;;;23.93;58.83;100657.91;7411674;19;1141;-67
2022/09/01 05:21:13;;;;;;;;;;;;;;;23.97;58.62;100670.94;7407828;19;1332;-68
2022/09/01 05:23:42;;;;;;;;;;;;;;;24.03;58.53;100650.47;7406647;19;1688;-68
2022/09/01 05:26:16;;;;;;;;;;;;;;;24.06;58.38;100652.00;7410361;19;1333;-68
2022/09/01 05:28:45;;;;;;;;;;;;;;;24.11;58.29;100652.31;7410132;19;1674;-68
2022/09/01 05:31:18;;;;;;;;;;;;;;;24.20;58.19;100652.13;7408417;19;1864;-61
2022/09/01 05:33:50;;;;;;;;;;;;;;;24.29;57.76;100657.50;7410474;19;1199;-68
2022/09/01 05:36:20;;;;;;;;;;;;;;;24.24;57.92;100657.22;7408315;19;1280;-61
2022/09/01 05:38:48;;;;;;;;;;;;;;;24.20;58.00;100646.72;7409483;19;1320;-61
2022/09/01 05:41:19;;;;;;;;;;;;;;;24.25;57.87;100648.06;7407484;19;1543;-62
2022/09/01 05:43:50;;;;;;;;;;;;;;;24.30;57.74;100633.03;7407325;19;1495;-61
2022/09/01 05:46:19;;;;;;;;;;;;;;;24.25;58.23;100640.78;7408607;19;1357;-61
2022/09/01 05:48:51;;;;;;;;;;;;;;;24.20;58.28;100638.63;7407246;19;1272;-61
2022/09/01 05:51:21;;;;;;;;;;;;;;;24.16;57.87;100628.34;7407849;19;1869;-61
2022/09/01 05:53:50;;;;;;;;;;;;;;;24.26;57.84;100634.38;7408592;19;1328;-61
2022/09/01 05:56:19;;;;;;;;;;;;;;;24.27;57.82;100632.53;7408260;19;1191;-61
2022/09/01 05:58:47;;;;;;;;;;;;;;;24.25;57.85;100629.97;7408777;19;1395;-62
2022/09/01 06:01:21;;;;;;;;;;;;;;;24.17;58.30;100630.88;7406268;19;1546;-61
2022/09/01 06:03:53;;;;;;;;;;;;;;;24.34;57.64;100630.81;7408348;19;1442;-61
2022/09/01 06:06:22;;;;;;;;;;;;;;;24.40;57.28;100630.13;7408892;19;1384;-61
2022/09/01 06:08:51;;;;;;;;;;;;;;;24.41;57.15;100627.25;7408654;19;1295;-61
2022/09/01 06:11:20;;;;;;;;;;;;;;;24.39;57.23;100633.81;7408395;19;1870;-61
2022/09/01 06:13:51;;;;;;;;;;;;;;;24.42;57.37;100641.59;7408905;19;1503;-62
2022/09/01 06:16:19;;;;;;;;;;;;;;;24.49;57.17;100664.22;7406133;19;1748;-62
2022/09/01 06:18:50;;;;;;;;;;;;;;;24.42;57.18;100645.13;7406515;19;1310;-68
2022/09/01 06:21:23;;;;;;;;;;;;;;;24.37;57.11;100636.72;7409596;19;1379;-68
2022/09/01 06:23:52;;;;;;;;;;;;;;;24.55;56.75;100658.16;7408496;19;1293;-68
2022/09/01 06:26:22;;;;;;;;;;;;;;;24.46;56.77;100651.03;7407077;19;1570;-68
2022/09/01 06:28:53;;;;;;;;;;;;;;;24.56;56.60;100651.72;7406644;19;1385;-68
2022/09/01 06:31:22;;;;;;;;;;;;;;;24.53;56.63;100667.44;7407787;19;1849;-68
2022/09/01 06:33:52;;;;;;;;;;;;;;;24.44;56.67;100644.97;7407838;19;1440;-68
2022/09/01 06:36:24;;;;;;;;;;;;;;;24.41;56.35;100650.72;7407881;19;1361;-67
2022/09/01 06:38:54;;;;;;;;;;;;;;;24.44;56.59;100658.47;7406640;19;1873;-68
2022/09/01 06:41:24;;;;;;;;;;;;;;;24.44;56.72;100666.59;7409570;19;1205;-68
2022/09/01 06:43:53;;;;;;;;;;;;;;;24.30;56.96;100672.72;7407561;19;1311;-68
2022/09/01 06:46:23;;;;;;;;;;;;;;;24.30;56.66;100661.91;7405861;19;1410;-68
2022/09/01 06:48:52;;;;;;;;;;;;;;;24.30;56.80;100662.75;7407763;19;1339;-68
2022/09/01 06:51:23;;;;;;;;;;;;;;;24.16;56.84;100658.91;7406618;19;1852;-61
2022/09/01 06:53:55;;;;;;;;;;;;;;;24.17;57.03;100666.00;7406475;19;1287;-61
2022/09/01 06:56:25;;;;;;;;;;;;;;;24.19;57.15;100677.47;7406896;19;1705;-62
2022/09/01 06:58:55;;;;;;;;;;;;;;;24.29;56.87;100681.81;7407378;19;1315;-61
2022/09/01 07:01:26;;;;;;;;;;;;;;;24.32;56.55;100679.63;7404973;19;1767;-61
2022/09/01 07:03:55;;;;;;;;;;;;;;;24.39;56.55;100668.97;7406626;19;1370;-61
2022/09/01 07:06:26;;;;;;;;;;;;;;;24.50;56.39;100675.88;7406803;19;1388;-66
2022/09/01 07:08:58;;;;;;;;;;;;;;;24.55;55.97;100674.38;7405452;19;1254;-70
2022/09/01 07:11:28;;;;;;;;;;;;;;;24.77;55.90;100669.19;7407630;19;1866;-66
2022/09/01 07:13:57;;;;;;;;;;;;;;;24.84;55.72;100663.94;7403863;19;1792;-72
2022/09/01 07:16:26;;;;;;;;;;;;;;;24.86;56.09;100676.25;7404293;19;1224;-68
2022/09/01 07:18:57;;;;;;;;;;;;;;;24.90;55.88;100658.66;7404712;19;1545;-67
2022/09/01 07:33:17;;;;;;;;;;;;;;;;;;;;;
2022/09/01 07:35:48;;;;;;;;;;;;;;;25.17;58.41;100661.91;7434096;19;1586;-48
2022/09/01 07:40:58;;;;;;;;;;;;;;;25.23;58.98;100663.03;7432277;19;1850;-46
2022/09/01 07:43:32;;;;;;;;;;;;;;;25.30;59.29;100672.97;7435205;19;1523;-46
2022/09/01 07:46:05;;;;;;;;;;;;;;;25.26;60.48;100660.00;7436004;19;1711;-46
2022/09/01 07:48:40;;;;;;;;;;;;;;;25.23;62.96;100661.22;7434092;19;1495;-46
2022/09/01 07:51:18;;;;;;;;;;;;;;;25.22;61.94;100654.09;7435204;19;1773;-46
2022/09/01 07:53:47;;;;;;;;;;;;;;;25.18;62.64;100645.44;7436391;19;1912;-46
2022/09/01 07:56:26;;;;;;;;;;;;;;;24.64;61.41;100641.88;7434075;19;1675;-45
2022/09/01 07:58:54;;;;;;;;;;;;;;;23.90;61.81;100658.28;7435179;19;1667;-46
2022/09/01 08:01:24;;;;;;;;;;;;;;;23.57;61.84;100644.75;7434267;19;1863;-46
2022/09/01 08:03:56;;;;;;;;;;;;;;;23.50;61.79;100647.28;7436426;19;1960;-45
2022/09/01 08:06:25;;;;;;;;;;;;;;;23.36;61.32;100654.19;7433337;19;1668;-45
2022/09/01 08:08:55;;;;;;;;;;;;;;;23.30;61.46;100644.06;7435110;19;1573;-43
2022/09/01 08:11:24;;;;;;;;;;;;;;;23.33;61.16;100659.91;7436283;19;1809;-47
2022/09/01 08:13:53;;;;;;;;;;;;;;;23.36;61.29;100651.50;7436134;19;1594;-45
2022/09/01 08:16:21;;;;;;;;;;;;;;;23.32;61.49;100652.84;7436139;19;1853;-45
2022/09/01 08:18:50;;;;;;;;;;;;;;;23.38;61.46;100644.06;7435232;19;1792;-44
2022/09/01 08:21:22;;;;;;;;;;;;;;;23.24;61.12;100628.56;7430388;19;1842;-45
2022/09/01 08:23:51;;;;;;;;;;;;;;;23.25;60.86;100651.81;7435938;19;1903;-46
2022/09/01 08:26:20;;;;;;;;;;;;;;;23.19;60.59;100634.44;7435183;19;1567;-46
2022/09/01 08:28:49;;;;;;;;;;;;;;;23.07;60.54;100632.22;7434352;19;1760;-45
2022/09/01 08:31:19;;;;;;;;;;;;;;;23.12;60.58;100636.13;7432947;19;1741;-45
2022/09/01 08:33:50;;;;;;;;;;;;;;;23.12;59.90;100624.47;7408641;19;1888;-46
2022/09/01 08:36:20;;;;;;;;;;;;;;;23.07;60.07;100638.47;7405995;19;1647;-45
2022/09/01 08:38:49;;;;;;;;;;;;;;;23.02;59.80;100614.69;7406852;19;1651;-45
2022/09/01 08:41:20;;;;;;;;;;;;;;;23.07;59.45;100618.75;7404287;19;1892;-46
2022/09/01 08:43:54;;;;;;;;;;;;;;;22.97;59.45;100614.31;7406521;19;1816;-45
2022/09/01 08:46:26;;;;;;;;;;;;;;;22.96;59.08;100612.63;7403917;19;1528;-45
2022/09/01 08:48:56;;;;;;;;;;;;;;;22.96;59.53;100615.31;7405331;19;1711;-45
2022/09/01 08:51:32;;;;;;;;;;;;;;;23.06;60.22;100615.22;7405367;19;1469;-47
2022/09/01 08:54:05;;;;;;;;;;;;;;;23.10;61.28;100615.69;7404408;19;1398;-46
2022/09/01 08:56:40;;;;;;;;;;;;;;;23.16;61.61;100588.91;7402149;19;1956;-46
2022/09/01 08:59:17;;;;;;;;;;;;;;;23.21;62.07;100593.81;7405788;19;1899;-46
2022/09/01 09:01:54;;;;;;;;;;;;;;;23.19;62.72;100599.34;7404719;19;1855;-46
2022/09/01 09:04:31;;;;;;;;;;;;;;;23.19;63.10;100582.34;7406794;19;995;-45
2022/09/01 09:07:07;;;;;;;;;;;;;;;23.27;63.78;100595.81;7403538;19;1374;-45
2022/09/01 09:09:41;;;;;;;;;;;;;;;23.32;64.00;100598.88;7406269;19;1921;-46
2022/09/01 09:12:31;;;;;;;;;;;;;;;23.31;64.25;100589.09;7403861;19;1931;-46
2022/09/01 09:15:25;;;;;;;;;;;;;;;23.29;64.68;100585.72;7403555;19;1573;-48
2022/09/01 09:17:58;;;;;;;;;;;;;;;23.33;65.13;100578.13;7403308;19;1547;-46
2022/09/01 09:20:36;;;;;;;;;;;;;;;23.41;65.13;100561.94;7406163;19;1207;-46
2022/09/01 09:23:26;;;;;;;;;;;;;;;23.25;64.02;100575.44;7401028;19;1845;-46
2022/09/01 09:25:54;;;;;;;;;;;;;;;23.11;63.31;100563.44;7403534;19;1721;-46
2022/09/01 09:28:23;;;;;;;;;;;;;;;23.18;64.26;100580.66;7403743;19;2039;-46
2022/09/01 09:30:51;;;;;;;;;;;;;;;23.24;64.24;100580.00;7402864;19;1828;-47
2022/09/01 09:33:35;;;;;;;;;;;;;;;23.28;64.73;100575.94;7403688;19;1619;-47
2022/09/01 09:36:17;;;;;;;;;;;;;;;23.23;65.39;100568.34;7403764;19;1400;-47
2022/09/01 09:38:49;;;;;;;;;;;;;;;23.23;65.48;100564.81;7404928;19;1398;-47
2022/09/01 09:41:19;;;;;;;;;;;;;;;23.28;65.69;100557.06;7403831;19;1843;-46
2022/09/01 09:43:49;;;;;;;;;;;;;;;23.36;65.73;100543.56;7403748;19;1649;-47
2022/09/01 09:46:29;;;;;;;;;;;;;;;23.39;65.68;100555.84;7401452;19;2792;-47
2022/09/01 09:49:11;;;;;;;;;;;;;;;23.41;65.76;100557.38;7403463;19;1824;-46
2022/09/01 09:51:40;;;;;;;;;;;;;;;23.37;66.11;100545.22;7402029;19;1571;-46
2022/09/01 09:54:16;;;;;;;;;;;;;;;23.41;66.42;100548.44;7403822;19;1591;-48
2022/09/01 09:56:46;;;;;;;;;;;;;;;23.45;66.17;100538.16;7402702;19;1662;-46
2022/09/01 09:59:25;;;;;;;;;;;;;;;23.36;65.19;100556.22;7401314;19;1692;-46
2022/09/01 10:01:56;;;;;;;;;;;;;;;23.15;64.96;100548.63;7401493;19;1855;-46
2022/09/01 10:04:35;;;;;;;;;;;;;;;23.16;65.39;100555.72;7403609;19;1839;-46
2022/09/01 10:07:03;;;;;;;;;;;;;;;23.30;65.60;100537.97;7401149;19;1732;-47
2022/09/01 10:09:39;;;;;;;;;;;;;;;23.30;66.12;100528.06;7403226;19;1401;-46
2022/09/01 10:12:07;;;;;;;;;;;;;;;23.45;65.70;100522.78;7403170;19;1823;-46
2022/09/01 10:14:39;;;;;;;;;;;;;;;23.69;66.23;100542.66;7401850;19;1668;-46
2022/09/01 10:17:12;;;;;;;;;;;;;;;23.66;66.14;100513.34;7403122;19;1684;-46
2022/09/01 10:19:42;;;;;;;;;;;;;;;23.62;66.46;100526.31;7403853;19;1335;-47
2022/09/01 10:22:12;;;;;;;;;;;;;;;23.58;66.18;100542.00;7398641;19;1873;-47
2022/09/01 10:24:43;;;;;;;;;;;;;;;23.59;65.96;100519.38;7403026;19;1603;-47
2022/09/01 10:27:17;;;;;;;;;;;;;;;23.40;66.38;100523.31;7400245;19;1728;-46
2022/09/01 10:29:48;;;;;;;;;;;;;;;23.28;66.16;100521.97;7402838;19;1595;-47
2022/09/01 10:32:19;;;;;;;;;;;;;;;23.15;66.08;100522.47;7401168;19;1925;-46
2022/09/01 10:34:48;;;;;;;;;;;;;;;23.14;66.02;100511.84;7403203;19;1000;-45
2022/09/01 10:37:16;;;;;;;;;;;;;;;23.02;66.39;100517.59;7399082;19;1777;-47
2022/09/01 10:39:59;;;;;;;;;;;;;;;23.00;66.42;100511.50;7402083;19;1531;-47
2022/09/01 10:42:30;;;;;;;;;;;;;;;23.33;64.65;100503.41;7397841;19;1843;-45
2022/09/01 10:45:08;;;;;;;;;;;;;;;23.43;64.13;100512.16;7401989;19;1830;-44
2022/09/01 10:47:39;;;;;;;;;;;;;;;23.51;63.76;100496.97;7401017;19;1313;-44
2022/09/01 10:50:32;;;;;;;;;;;;;;;23.52;63.57;100496.81;7400736;19;1756;-44
2022/09/01 10:53:05;;;;;;;;;;;;;;;23.71;62.96;100494.75;7401579;19;1898;-42
2022/09/01 10:55:45;;;;;;;;;;;;;;;23.69;62.86;100492.22;7401093;19;1659;-41
2022/09/01 10:58:43;;;;;;;;;;;;;;;23.76;62.49;100498.59;7400639;19;1813;-43
2022/09/01 11:01:20;;;;;;;;;;;;;;;23.69;62.61;100486.81;7400314;19;1558;-45
2022/09/01 11:03:55;;;;;;;;;;;;;;;23.58;62.79;100489.91;7402024;19;1639;-46
2022/09/01 11:06:37;;;;;;;;;;;;;;;23.58;62.65;100488.03;7401840;19;1976;-45
2022/09/01 11:09:20;;;;;;;;;;;;;;;23.59;62.26;100487.00;7400857;19;1493;-45
2022/09/01 11:11:55;;;;;;;;;;;;;;;23.68;62.09;100485.13;7400266;19;1807;-45
2022/09/01 11:14:34;;;;;;;;;;;;;;;23.70;62.30;100482.28;7400242;19;1950;-45
2022/09/01 11:17:19;;;;;;;;;;;;;;;23.80;61.93;100464.03;7400861;19;2241;-46
2022/09/01 11:19:58;;;;;;;;;;;;;;;23.82;61.93;100460.13;7401666;19;1599;-43
2022/09/01 11:22:28;;;;;;;;;;;;;;;23.88;61.67;100457.78;7399146;19;1897;-43
2022/09/01 11:25:12;;;;;;;;;;;;;;;23.70;62.15;100461.50;7400186;19;1909;-43
2022/09/01 11:27:58;;;;;;;;;;;;;;;23.65;62.17;100455.78;7400791;19;1767;-44
2022/09/01 11:30:35;;;;;;;;;;;;;;;23.73;61.80;100466.53;7399830;19;1493;-44
2022/09/01 11:33:23;;;;;;;;;;;;;;;23.69;61.69;100459.81;7399529;19;1936;-44
2022/09/01 11:36:02;;;;;;;;;;;;;;;23.77;61.63;100457.09;7399623;19;1610;-42
2022/09/01 11:38:34;;;;;;;;;;;;;;;23.62;61.52;100442.66;7394821;19;1623;-44
2022/09/01 11:41:02;;;;;;;;;;;;;;;23.85;61.21;100455.41;7400482;19;1833;-44
2022/09/01 11:43:31;;;;;;;;;;;;;;;23.85;61.23;100453.53;7398025;19;2157;-46
2022/09/01 11:46:08;;;;;;;;;;;;;;;23.80;61.40;100445.97;7398641;19;1720;-46
2022/09/01 11:48:40;;;;;;;;;;;;;;;23.79;61.55;100444.28;7399849;19;1471;-45
2022/09/01 11:51:09;;;;;;;;;;;;;;;23.69;61.81;100438.22;7400441;19;1546;-45
2022/09/01 11:53:46;;;;;;;;;;;;;;;23.65;61.77;100430.66;7400135;19;1646;-46
2022/09/01 11:56:17;;;;;;;;;;;;;;;23.69;61.53;100432.81;7400524;19;1564;-45
2022/09/01 11:58:46;;;;;;;;;;;;;;;23.69;61.58;100430.13;7400337;19;1508;-46
2022/09/01 12:01:16;;;;;;;;;;;;;;;23.76;61.48;100432.97;7399365;19;1983;-46
2022/09/01 12:03:48;;;;;;;;;;;;;;;23.71;61.18;100422.69;7397038;19;1879;-47
2022/09/01 12:06:21;;;;;;;;;;;;;;;23.71;61.18;100425.38;7399885;19;1548;-45
2022/09/01 12:09:13;;;;;;;;;;;;;;;23.71;61.33;100429.94;7405613;19;1511;-47
2022/09/01 12:11:47;;;;;;;;;;;;;;;23.66;61.24;100416.97;7405433;19;1709;-47
2022/09/01 12:14:25;;;;;;;;;;;;;;;23.67;61.59;100423.22;7407164;19;2463;-48
2022/09/01 12:17:13;;;;;;;;;;;;;;;23.69;61.35;100408.50;7407399;19;1308;-45
2022/09/01 12:20:01;;;;;;;;;;;;;;;;;;;;;
2022/09/01 12:22:33;;;;;;;;;;;;;;;23.70;61.28;100404.81;7402306;19;1861;-48
2022/09/01 12:25:04;;;;;;;;;;;;;;;23.88;60.46;100403.75;7405475;19;1401;-47
2022/09/01 12:27:42;;;;;;;;;;;;;;;23.85;60.31;100396.00;7404509;19;1568;-47
2022/09/01 12:30:14;;;;;;;;;;;;;;;23.78;60.58;100415.59;7402740;19;1794;-40
2022/09/01 12:32:49;;;;;;;;;;;;;;;23.80;60.63;100400.06;7402742;19;1459;-40
2022/09/01 12:35:26;;;;;;;;;;;;;;;23.79;60.40;100394.84;7405807;19;1242;-40
2022/09/01 12:38:20;;;;;;;;;;;;;;;23.70;60.69;100401.28;7404890;19;1476;-39
2022/09/01 12:40:53;;;;;;;;;;;;;;;23.75;60.74;100386.22;7403624;19;2048;-40
2022/09/01 12:46:13;;;;;;;;;;;;;;;23.84;60.91;100387.06;7402016;19;2228;-39
2022/09/01 12:49:05;;;;;;;;;;;;;;;24.10;61.12;100385.91;7404587;19;1798;-41
2022/09/01 12:51:47;;;;;;;;;;;;;;;24.02;60.47;100409.25;7402104;19;1922;-40
2022/09/01 12:54:15;;;;;;;;;;;;;;;23.93;60.96;100390.56;7403888;19;1871;-40
2022/09/01 12:56:50;;;;;;;;;;;;;;;23.90;61.17;100385.53;7402512;19;1748;-41
2022/09/01 12:59:23;;;;;;;;;;;;;;;23.87;60.96;100375.91;7405537;19;1878;-40
2022/09/01 13:02:15;;;;;;;;;;;;;;;23.87;61.03;100386.69;7404493;19;1817;-40
2022/09/01 13:04:43;;;;;;;;;;;;;;;23.79;61.04;100384.03;7404992;19;1714;-40
2022/09/01 13:07:14;;;;;;;;;;;;;;;23.79;60.87;100381.34;7404104;19;2035;-40
2022/09/01 13:09:45;;;;;;;;;;;;;;;23.74;60.98;100370.22;7403576;19;1825;-40
2022/09/01 13:12:20;;;;;;;;;;;;;;;23.86;61.07;100376.09;7404172;19;2230;-40
2022/09/01 13:14:59;;;;;;;;;;;;;;;23.94;61.00;100392.25;7403739;19;2139;-40
2022/09/01 13:20:28;;;;;;;;;;;;;;;23.88;60.87;100355.97;7401170;19;2317;-39
2022/09/01 13:25:58;;;;;;;;;;;;;;;23.75;61.01;100359.22;7399695;19;2443;-40
2022/09/01 13:28:32;;;;;;;;;;;;;;;23.77;61.13;100359.03;7402943;19;1955;-40
2022/09/01 13:31:04;;;;;;;;;;;;;;;23.76;61.10;100368.19;7402605;19;1916;-40
2022/09/01 13:33:56;;;;;;;;;;;;;;;23.75;61.11;100371.88;7402597;19;1741;-39
2022/09/01 13:36:30;;;;;;;;;;;;;;;23.75;60.98;100370.00;7400369;19;1598;-41
2022/09/01 13:39:11;;;;;;;;;;;;;;;23.72;61.06;100367.69;7402569;19;1808;-40
2022/09/01 13:41:43;;;;;;;;;;;;;;;23.66;60.75;100357.59;7403089;19;1521;-39